sensor_id;sensor_type;location;lat;lon;timestamp;P1;durP1;ratioP1;P2;durP2;ratioP2
78670;SDS011;68277;52.724;6.516;2024-01-30T00:02:08;10.00;;;3.15;;
78670;SDS011;68277;52.724;6.516;2024-01-30T00:04:34;4.22;;;2.63;;
78670;SDS011;68277;52.724;6.516;2024-01-30T00:06:59;6.40;;;3.92;;
78670;SDS011;68277;52.724;6.516;2024-01-30T00:09:25;9.38;;;3.33;;
78670;SDS011;68277;52.724;6.516;2024-01-30T00:11:51;5.68;;;3.25;;
78670;SDS011;68277;52.724;6.516;2024-01-30T00:14:16;8.23;;;4.90;;
78670;SDS011;68277;52.724;6.516;2024-01-30T00:16:42;12.20;;;5.43;;
78670;SDS011;68277;52.724;6.516;2024-01-30T00:19:08;8.38;;;4.65;;
78670;SDS011;68277;52.724;6.516;2024-01-30T00:21:33;9.93;;;4.40;;
78670;SDS011;68277;52.724;6.516;2024-01-30T00:23:59;4.75;;;3.53;;
78670;SDS011;68277;52.724;6.516;2024-01-30T00:26:25;7.13;;;6.07;;
78670;SDS011;68277;52.724;6.516;2024-01-30T00:28:51;6.72;;;2.92;;
78670;SDS011;68277;52.724;6.516;2024-01-30T00:31:16;8.05;;;4.10;;
78670;SDS011;68277;52.724;6.516;2024-01-30T00:33:42;6.70;;;3.25;;
78670;SDS011;68277;52.724;6.516;2024-01-30T00:36:08;5.82;;;2.97;;
78670;SDS011;68277;52.724;6.516;2024-01-30T00:41:07;3.55;;;2.08;;
78670;SDS011;68277;52.724;6.516;2024-01-30T00:43:34;5.88;;;2.58;;
78670;SDS011;68277;52.724;6.516;2024-01-30T00:46:00;4.47;;;3.30;;
78670;SDS011;68277;52.724;6.516;2024-01-30T00:48:26;5.72;;;2.22;;
78670;SDS011;68277;52.724;6.516;2024-01-30T00:50:51;7.43;;;5.57;;
78670;SDS011;68277;52.724;6.516;2024-01-30T00:53:17;5.40;;;4.18;;
78670;SDS011;68277;52.724;6.516;2024-01-30T00:55:43;9.73;;;4.63;;
78670;SDS011;68277;52.724;6.516;2024-01-30T00:58:09;6.57;;;2.90;;
78670;SDS011;68277;52.724;6.516;2024-01-30T01:00:36;7.40;;;2.92;;
78670;SDS011;68277;52.724;6.516;2024-01-30T01:03:02;9.10;;;4.65;;
78670;SDS011;68277;52.724;6.516;2024-01-30T01:05:28;6.13;;;4.53;;
78670;SDS011;68277;52.724;6.516;2024-01-30T01:07:53;6.82;;;3.28;;
78670;SDS011;68277;52.724;6.516;2024-01-30T01:10:19;4.93;;;3.85;;
78670;SDS011;68277;52.724;6.516;2024-01-30T01:12:45;5.45;;;2.33;;
78670;SDS011;68277;52.724;6.516;2024-01-30T01:15:11;7.05;;;4.75;;
78670;SDS011;68277;52.724;6.516;2024-01-30T01:17:37;5.88;;;3.67;;
78670;SDS011;68277;52.724;6.516;2024-01-30T01:20:04;8.55;;;3.45;;
78670;SDS011;68277;52.724;6.516;2024-01-30T01:22:31;9.57;;;3.92;;
78670;SDS011;68277;52.724;6.516;2024-01-30T01:24:57;5.47;;;2.67;;
78670;SDS011;68277;52.724;6.516;2024-01-30T01:27:23;6.75;;;3.58;;
78670;SDS011;68277;52.724;6.516;2024-01-30T01:29:50;5.68;;;3.30;;
78670;SDS011;68277;52.724;6.516;2024-01-30T01:32:16;8.35;;;3.30;;
78670;SDS011;68277;52.724;6.516;2024-01-30T01:34:41;8.50;;;5.57;;
78670;SDS011;68277;52.724;6.516;2024-01-30T01:37:07;7.22;;;4.28;;
78670;SDS011;68277;52.724;6.516;2024-01-30T01:39:32;11.15;;;6.22;;
78670;SDS011;68277;52.724;6.516;2024-01-30T01:41:58;18.13;;;4.90;;
78670;SDS011;68277;52.724;6.516;2024-01-30T01:44:24;4.15;;;2.72;;
78670;SDS011;68277;52.724;6.516;2024-01-30T01:46:49;5.45;;;2.53;;
78670;SDS011;68277;52.724;6.516;2024-01-30T01:49:16;5.95;;;4.60;;
78670;SDS011;68277;52.724;6.516;2024-01-30T01:51:42;7.75;;;3.83;;
78670;SDS011;68277;52.724;6.516;2024-01-30T01:54:10;6.35;;;3.05;;
78670;SDS011;68277;52.724;6.516;2024-01-30T01:56:36;8.07;;;4.35;;
78670;SDS011;68277;52.724;6.516;2024-01-30T01:59:07;7.47;;;3.50;;
78670;SDS011;68277;52.724;6.516;2024-01-30T02:01:33;6.13;;;2.50;;
78670;SDS011;68277;52.724;6.516;2024-01-30T02:04:01;4.82;;;4.25;;
78670;SDS011;68277;52.724;6.516;2024-01-30T02:06:27;6.35;;;3.67;;
78670;SDS011;68277;52.724;6.516;2024-01-30T02:08:53;9.30;;;4.57;;
78670;SDS011;68277;52.724;6.516;2024-01-30T02:11:21;7.68;;;3.75;;
78670;SDS011;68277;52.724;6.516;2024-01-30T02:13:48;3.33;;;2.58;;
78670;SDS011;68277;52.724;6.516;2024-01-30T02:16:14;7.90;;;3.88;;
78670;SDS011;68277;52.724;6.516;2024-01-30T02:18:39;8.10;;;5.03;;
78670;SDS011;68277;52.724;6.516;2024-01-30T02:21:12;4.80;;;2.80;;
78670;SDS011;68277;52.724;6.516;2024-01-30T02:26:05;7.50;;;4.45;;
78670;SDS011;68277;52.724;6.516;2024-01-30T02:28:31;9.07;;;3.67;;
78670;SDS011;68277;52.724;6.516;2024-01-30T02:30:56;4.93;;;3.20;;
78670;SDS011;68277;52.724;6.516;2024-01-30T02:33:21;7.70;;;4.68;;
78670;SDS011;68277;52.724;6.516;2024-01-30T02:35:47;5.57;;;2.97;;
78670;SDS011;68277;52.724;6.516;2024-01-30T02:38:17;6.80;;;4.13;;
78670;SDS011;68277;52.724;6.516;2024-01-30T02:40:43;5.32;;;4.45;;
78670;SDS011;68277;52.724;6.516;2024-01-30T02:43:09;6.45;;;3.60;;
78670;SDS011;68277;52.724;6.516;2024-01-30T02:45:34;8.45;;;4.97;;
78670;SDS011;68277;52.724;6.516;2024-01-30T02:48:00;10.52;;;5.57;;
78670;SDS011;68277;52.724;6.516;2024-01-30T02:50:25;9.95;;;3.10;;
78670;SDS011;68277;52.724;6.516;2024-01-30T02:52:51;7.05;;;4.32;;
78670;SDS011;68277;52.724;6.516;2024-01-30T02:55:16;12.45;;;4.40;;
78670;SDS011;68277;52.724;6.516;2024-01-30T02:57:44;7.80;;;3.80;;
78670;SDS011;68277;52.724;6.516;2024-01-30T03:00:10;4.25;;;2.95;;
78670;SDS011;68277;52.724;6.516;2024-01-30T03:02:36;4.15;;;3.30;;
78670;SDS011;68277;52.724;6.516;2024-01-30T03:05:02;10.32;;;4.65;;
78670;SDS011;68277;52.724;6.516;2024-01-30T03:07:31;7.00;;;3.90;;
78670;SDS011;68277;52.724;6.516;2024-01-30T03:09:56;12.82;;;6.32;;
78670;SDS011;68277;52.724;6.516;2024-01-30T03:12:26;5.15;;;4.00;;
78670;SDS011;68277;52.724;6.516;2024-01-30T03:14:52;12.07;;;6.32;;
78670;SDS011;68277;52.724;6.516;2024-01-30T03:17:17;9.95;;;3.92;;
78670;SDS011;68277;52.724;6.516;2024-01-30T03:19:43;5.13;;;3.40;;
78670;SDS011;68277;52.724;6.516;2024-01-30T03:22:08;5.85;;;4.00;;
78670;SDS011;68277;52.724;6.516;2024-01-30T03:24:34;4.97;;;3.83;;
78670;SDS011;68277;52.724;6.516;2024-01-30T03:26:59;7.50;;;3.63;;
78670;SDS011;68277;52.724;6.516;2024-01-30T03:29:25;6.25;;;3.58;;
78670;SDS011;68277;52.724;6.516;2024-01-30T03:31:50;8.88;;;3.85;;
78670;SDS011;68277;52.724;6.516;2024-01-30T03:34:16;7.20;;;5.10;;
78670;SDS011;68277;52.724;6.516;2024-01-30T03:36:41;5.65;;;3.42;;
78670;SDS011;68277;52.724;6.516;2024-01-30T03:39:07;7.25;;;3.60;;
78670;SDS011;68277;52.724;6.516;2024-01-30T03:41:32;8.52;;;4.57;;
78670;SDS011;68277;52.724;6.516;2024-01-30T03:43:58;9.55;;;4.75;;
78670;SDS011;68277;52.724;6.516;2024-01-30T03:46:24;6.10;;;4.60;;
78670;SDS011;68277;52.724;6.516;2024-01-30T03:48:49;8.05;;;4.47;;
78670;SDS011;68277;52.724;6.516;2024-01-30T03:51:15;9.45;;;5.78;;
78670;SDS011;68277;52.724;6.516;2024-01-30T03:53:41;9.73;;;5.90;;
78670;SDS011;68277;52.724;6.516;2024-01-30T03:56:07;10.05;;;5.72;;
78670;SDS011;68277;52.724;6.516;2024-01-30T03:58:33;10.55;;;5.55;;
78670;SDS011;68277;52.724;6.516;2024-01-30T04:00:59;9.10;;;4.43;;
78670;SDS011;68277;52.724;6.516;2024-01-30T04:03:24;7.10;;;4.68;;
78670;SDS011;68277;52.724;6.516;2024-01-30T04:05:53;7.55;;;4.43;;
78670;SDS011;68277;52.724;6.516;2024-01-30T04:08:19;6.20;;;4.47;;
78670;SDS011;68277;52.724;6.516;2024-01-30T04:10:44;13.13;;;6.57;;
78670;SDS011;68277;52.724;6.516;2024-01-30T04:13:11;7.88;;;3.38;;
78670;SDS011;68277;52.724;6.516;2024-01-30T04:15:36;9.75;;;4.80;;
78670;SDS011;68277;52.724;6.516;2024-01-30T04:18:02;5.15;;;3.35;;
78670;SDS011;68277;52.724;6.516;2024-01-30T04:20:28;7.63;;;3.47;;
78670;SDS011;68277;52.724;6.516;2024-01-30T04:22:54;9.23;;;3.92;;
78670;SDS011;68277;52.724;6.516;2024-01-30T04:25:20;12.07;;;4.43;;
78670;SDS011;68277;52.724;6.516;2024-01-30T04:27:46;12.15;;;5.40;;
78670;SDS011;68277;52.724;6.516;2024-01-30T04:30:12;14.50;;;5.05;;
78670;SDS011;68277;52.724;6.516;2024-01-30T04:32:38;10.40;;;5.13;;
78670;SDS011;68277;52.724;6.516;2024-01-30T04:35:04;7.82;;;4.47;;
78670;SDS011;68277;52.724;6.516;2024-01-30T04:37:31;9.52;;;4.70;;
78670;SDS011;68277;52.724;6.516;2024-01-30T04:39:57;8.93;;;5.47;;
78670;SDS011;68277;52.724;6.516;2024-01-30T04:42:22;7.38;;;4.43;;
78670;SDS011;68277;52.724;6.516;2024-01-30T04:44:48;9.60;;;4.70;;
78670;SDS011;68277;52.724;6.516;2024-01-30T04:47:13;9.63;;;5.93;;
78670;SDS011;68277;52.724;6.516;2024-01-30T04:49:39;10.82;;;5.47;;
78670;SDS011;68277;52.724;6.516;2024-01-30T04:52:05;11.27;;;5.50;;
78670;SDS011;68277;52.724;6.516;2024-01-30T04:54:31;8.38;;;4.65;;
78670;SDS011;68277;52.724;6.516;2024-01-30T04:56:56;12.32;;;6.45;;
78670;SDS011;68277;52.724;6.516;2024-01-30T04:59:22;6.95;;;5.05;;
78670;SDS011;68277;52.724;6.516;2024-01-30T05:01:47;6.65;;;4.47;;
78670;SDS011;68277;52.724;6.516;2024-01-30T05:04:13;6.50;;;4.07;;
78670;SDS011;68277;52.724;6.516;2024-01-30T05:06:39;15.60;;;5.32;;
78670;SDS011;68277;52.724;6.516;2024-01-30T05:09:04;9.02;;;4.60;;
78670;SDS011;68277;52.724;6.516;2024-01-30T05:11:30;8.35;;;3.80;;
78670;SDS011;68277;52.724;6.516;2024-01-30T05:13:56;11.55;;;5.35;;
78670;SDS011;68277;52.724;6.516;2024-01-30T05:16:21;9.90;;;5.38;;
78670;SDS011;68277;52.724;6.516;2024-01-30T05:18:47;7.57;;;4.60;;
78670;SDS011;68277;52.724;6.516;2024-01-30T05:21:13;8.10;;;4.90;;
78670;SDS011;68277;52.724;6.516;2024-01-30T05:23:39;11.38;;;5.55;;
78670;SDS011;68277;52.724;6.516;2024-01-30T05:26:07;8.93;;;4.53;;
78670;SDS011;68277;52.724;6.516;2024-01-30T05:31:23;16.40;;;6.05;;
78670;SDS011;68277;52.724;6.516;2024-01-30T05:33:51;11.05;;;4.82;;
78670;SDS011;68277;52.724;6.516;2024-01-30T05:36:16;7.13;;;4.47;;
78670;SDS011;68277;52.724;6.516;2024-01-30T05:38:45;12.02;;;4.82;;
78670;SDS011;68277;52.724;6.516;2024-01-30T05:41:11;7.35;;;4.53;;
78670;SDS011;68277;52.724;6.516;2024-01-30T05:43:36;7.70;;;5.25;;
78670;SDS011;68277;52.724;6.516;2024-01-30T05:46:02;10.18;;;5.15;;
78670;SDS011;68277;52.724;6.516;2024-01-30T05:48:27;6.75;;;4.88;;
78670;SDS011;68277;52.724;6.516;2024-01-30T05:50:53;4.53;;;2.35;;
78670;SDS011;68277;52.724;6.516;2024-01-30T05:53:20;9.15;;;4.13;;
78670;SDS011;68277;52.724;6.516;2024-01-30T05:55:46;7.57;;;4.50;;
78670;SDS011;68277;52.724;6.516;2024-01-30T05:58:12;11.43;;;4.72;;
78670;SDS011;68277;52.724;6.516;2024-01-30T06:00:38;10.10;;;5.22;;
78670;SDS011;68277;52.724;6.516;2024-01-30T06:03:08;10.60;;;5.10;;
78670;SDS011;68277;52.724;6.516;2024-01-30T06:05:34;10.80;;;6.85;;
78670;SDS011;68277;52.724;6.516;2024-01-30T06:07:59;9.15;;;4.80;;
78670;SDS011;68277;52.724;6.516;2024-01-30T06:10:25;11.63;;;5.88;;
78670;SDS011;68277;52.724;6.516;2024-01-30T06:12:50;8.60;;;4.80;;
78670;SDS011;68277;52.724;6.516;2024-01-30T06:15:16;6.85;;;4.78;;
78670;SDS011;68277;52.724;6.516;2024-01-30T06:17:41;12.95;;;5.88;;
78670;SDS011;68277;52.724;6.516;2024-01-30T06:20:07;9.07;;;4.63;;
78670;SDS011;68277;52.724;6.516;2024-01-30T06:22:33;6.63;;;3.95;;
78670;SDS011;68277;52.724;6.516;2024-01-30T06:24:58;10.48;;;4.13;;
78670;SDS011;68277;52.724;6.516;2024-01-30T06:27:24;18.92;;;5.85;;
78670;SDS011;68277;52.724;6.516;2024-01-30T06:29:52;9.77;;;4.43;;
78670;SDS011;68277;52.724;6.516;2024-01-30T06:32:17;7.15;;;4.18;;
78670;SDS011;68277;52.724;6.516;2024-01-30T06:34:43;8.52;;;4.03;;
78670;SDS011;68277;52.724;6.516;2024-01-30T06:37:18;8.65;;;3.33;;
78670;SDS011;68277;52.724;6.516;2024-01-30T06:39:43;11.27;;;5.40;;
78670;SDS011;68277;52.724;6.516;2024-01-30T06:42:09;8.38;;;3.78;;
78670;SDS011;68277;52.724;6.516;2024-01-30T06:44:34;7.32;;;4.25;;
78670;SDS011;68277;52.724;6.516;2024-01-30T06:47:00;8.75;;;5.28;;
78670;SDS011;68277;52.724;6.516;2024-01-30T06:49:25;9.43;;;4.85;;
78670;SDS011;68277;52.724;6.516;2024-01-30T06:51:51;10.65;;;4.35;;
78670;SDS011;68277;52.724;6.516;2024-01-30T06:54:17;9.18;;;4.47;;
78670;SDS011;68277;52.724;6.516;2024-01-30T06:56:43;8.95;;;5.20;;
78670;SDS011;68277;52.724;6.516;2024-01-30T06:59:08;8.98;;;4.97;;
78670;SDS011;68277;52.724;6.516;2024-01-30T07:01:34;7.32;;;4.07;;
78670;SDS011;68277;52.724;6.516;2024-01-30T07:03:59;10.80;;;5.43;;
78670;SDS011;68277;52.724;6.516;2024-01-30T07:06:25;7.82;;;5.75;;
78670;SDS011;68277;52.724;6.516;2024-01-30T07:08:50;5.40;;;4.20;;
78670;SDS011;68277;52.724;6.516;2024-01-30T07:11:19;5.78;;;4.05;;
78670;SDS011;68277;52.724;6.516;2024-01-30T07:13:47;9.48;;;5.00;;
78670;SDS011;68277;52.724;6.516;2024-01-30T07:16:13;11.02;;;4.38;;
78670;SDS011;68277;52.724;6.516;2024-01-30T07:18:39;5.40;;;3.63;;
78670;SDS011;68277;52.724;6.516;2024-01-30T07:21:05;6.72;;;4.55;;
78670;SDS011;68277;52.724;6.516;2024-01-30T07:23:30;9.25;;;4.25;;
78670;SDS011;68277;52.724;6.516;2024-01-30T07:25:56;8.32;;;5.32;;
78670;SDS011;68277;52.724;6.516;2024-01-30T07:28:22;10.40;;;5.15;;
78670;SDS011;68277;52.724;6.516;2024-01-30T07:30:47;7.93;;;4.13;;
78670;SDS011;68277;52.724;6.516;2024-01-30T07:33:13;8.50;;;4.10;;
78670;SDS011;68277;52.724;6.516;2024-01-30T07:35:39;14.70;;;4.78;;
78670;SDS011;68277;52.724;6.516;2024-01-30T07:38:05;9.65;;;4.57;;
78670;SDS011;68277;52.724;6.516;2024-01-30T07:40:56;7.00;;;4.18;;
78670;SDS011;68277;52.724;6.516;2024-01-30T07:43:22;9.20;;;4.45;;
78670;SDS011;68277;52.724;6.516;2024-01-30T07:45:47;8.38;;;4.38;;
78670;SDS011;68277;52.724;6.516;2024-01-30T07:48:13;12.73;;;4.65;;
78670;SDS011;68277;52.724;6.516;2024-01-30T07:50:39;11.95;;;6.00;;
78670;SDS011;68277;52.724;6.516;2024-01-30T07:53:04;8.98;;;5.18;;
78670;SDS011;68277;52.724;6.516;2024-01-30T07:55:30;9.43;;;3.97;;
78670;SDS011;68277;52.724;6.516;2024-01-30T07:57:57;8.73;;;4.38;;
78670;SDS011;68277;52.724;6.516;2024-01-30T08:02:52;8.07;;;3.95;;
78670;SDS011;68277;52.724;6.516;2024-01-30T08:05:21;8.48;;;4.38;;
78670;SDS011;68277;52.724;6.516;2024-01-30T08:07:48;8.82;;;5.47;;
78670;SDS011;68277;52.724;6.516;2024-01-30T08:10:14;13.07;;;4.57;;
78670;SDS011;68277;52.724;6.516;2024-01-30T08:15:21;9.52;;;4.65;;
78670;SDS011;68277;52.724;6.516;2024-01-30T08:17:47;6.97;;;3.67;;
78670;SDS011;68277;52.724;6.516;2024-01-30T08:20:13;7.57;;;4.53;;
78670;SDS011;68277;52.724;6.516;2024-01-30T08:22:39;7.97;;;4.00;;
78670;SDS011;68277;52.724;6.516;2024-01-30T08:25:08;5.78;;;3.67;;
78670;SDS011;68277;52.724;6.516;2024-01-30T08:30:01;7.95;;;3.90;;
78670;SDS011;68277;52.724;6.516;2024-01-30T08:32:27;8.68;;;5.13;;
78670;SDS011;68277;52.724;6.516;2024-01-30T08:34:53;9.35;;;5.15;;
78670;SDS011;68277;52.724;6.516;2024-01-30T08:37:18;9.82;;;5.50;;
78670;SDS011;68277;52.724;6.516;2024-01-30T08:39:44;7.50;;;4.45;;
78670;SDS011;68277;52.724;6.516;2024-01-30T08:42:10;8.85;;;4.63;;
78670;SDS011;68277;52.724;6.516;2024-01-30T08:44:35;7.75;;;4.88;;
78670;SDS011;68277;52.724;6.516;2024-01-30T08:47:01;9.45;;;4.18;;
78670;SDS011;68277;52.724;6.516;2024-01-30T08:51:53;4.68;;;3.53;;
78670;SDS011;68277;52.724;6.516;2024-01-30T08:54:19;16.50;;;4.45;;
78670;SDS011;68277;52.724;6.516;2024-01-30T08:56:45;9.38;;;4.88;;
78670;SDS011;68277;52.724;6.516;2024-01-30T08:59:10;9.52;;;4.03;;
78670;SDS011;68277;52.724;6.516;2024-01-30T09:01:36;7.15;;;4.60;;
78670;SDS011;68277;52.724;6.516;2024-01-30T09:04:03;7.47;;;4.13;;
78670;SDS011;68277;52.724;6.516;2024-01-30T09:06:32;7.45;;;4.50;;
78670;SDS011;68277;52.724;6.516;2024-01-30T09:08:58;9.50;;;4.75;;
78670;SDS011;68277;52.724;6.516;2024-01-30T09:11:29;10.70;;;5.72;;
78670;SDS011;68277;52.724;6.516;2024-01-30T09:13:55;6.95;;;4.45;;
78670;SDS011;68277;52.724;6.516;2024-01-30T09:16:21;8.82;;;4.63;;
78670;SDS011;68277;52.724;6.516;2024-01-30T09:18:46;9.05;;;4.63;;
78670;SDS011;68277;52.724;6.516;2024-01-30T09:21:12;10.98;;;5.05;;
78670;SDS011;68277;52.724;6.516;2024-01-30T09:23:38;9.25;;;4.82;;
78670;SDS011;68277;52.724;6.516;2024-01-30T09:26:03;6.70;;;3.10;;
78670;SDS011;68277;52.724;6.516;2024-01-30T09:28:29;6.65;;;4.28;;
78670;SDS011;68277;52.724;6.516;2024-01-30T09:30:56;8.65;;;4.88;;
78670;SDS011;68277;52.724;6.516;2024-01-30T09:33:22;8.23;;;4.28;;
78670;SDS011;68277;52.724;6.516;2024-01-30T09:35:48;9.52;;;5.97;;
78670;SDS011;68277;52.724;6.516;2024-01-30T09:38:14;7.88;;;4.63;;
78670;SDS011;68277;52.724;6.516;2024-01-30T09:40:39;6.78;;;4.13;;
78670;SDS011;68277;52.724;6.516;2024-01-30T09:43:07;11.80;;;5.32;;
78670;SDS011;68277;52.724;6.516;2024-01-30T09:45:32;9.85;;;4.32;;
78670;SDS011;68277;52.724;6.516;2024-01-30T09:48:00;12.18;;;5.70;;
78670;SDS011;68277;52.724;6.516;2024-01-30T09:50:26;8.65;;;4.25;;
78670;SDS011;68277;52.724;6.516;2024-01-30T09:52:52;7.88;;;4.38;;
78670;SDS011;68277;52.724;6.516;2024-01-30T09:58:16;4.72;;;3.05;;
78670;SDS011;68277;52.724;6.516;2024-01-30T10:00:42;7.95;;;4.32;;
78670;SDS011;68277;52.724;6.516;2024-01-30T10:03:08;9.25;;;4.60;;
78670;SDS011;68277;52.724;6.516;2024-01-30T10:05:34;9.63;;;4.85;;
78670;SDS011;68277;52.724;6.516;2024-01-30T10:08:05;8.25;;;4.68;;
78670;SDS011;68277;52.724;6.516;2024-01-30T10:10:37;15.10;;;6.05;;
78670;SDS011;68277;52.724;6.516;2024-01-30T10:13:02;6.90;;;4.22;;
78670;SDS011;68277;52.724;6.516;2024-01-30T10:15:28;9.57;;;4.60;;
78670;SDS011;68277;52.724;6.516;2024-01-30T10:17:54;6.28;;;3.80;;
78670;SDS011;68277;52.724;6.516;2024-01-30T10:20:19;11.25;;;5.57;;
78670;SDS011;68277;52.724;6.516;2024-01-30T10:22:47;7.90;;;4.78;;
78670;SDS011;68277;52.724;6.516;2024-01-30T10:25:14;8.15;;;3.80;;
78670;SDS011;68277;52.724;6.516;2024-01-30T10:27:40;8.95;;;4.85;;
78670;SDS011;68277;52.724;6.516;2024-01-30T10:30:06;8.32;;;4.07;;
78670;SDS011;68277;52.724;6.516;2024-01-30T10:32:33;11.25;;;4.28;;
78670;SDS011;68277;52.724;6.516;2024-01-30T10:34:58;8.25;;;3.72;;
78670;SDS011;68277;52.724;6.516;2024-01-30T10:37:25;7.88;;;4.30;;
78670;SDS011;68277;52.724;6.516;2024-01-30T10:39:52;8.82;;;3.97;;
78670;SDS011;68277;52.724;6.516;2024-01-30T10:42:20;6.40;;;3.33;;
78670;SDS011;68277;52.724;6.516;2024-01-30T10:47:48;11.65;;;5.75;;
78670;SDS011;68277;52.724;6.516;2024-01-30T10:50:15;9.80;;;4.28;;
78670;SDS011;68277;52.724;6.516;2024-01-30T10:52:41;8.57;;;4.68;;
78670;SDS011;68277;52.724;6.516;2024-01-30T10:55:09;9.30;;;4.88;;
78670;SDS011;68277;52.724;6.516;2024-01-30T10:57:35;7.63;;;3.97;;
78670;SDS011;68277;52.724;6.516;2024-01-30T11:00:08;6.90;;;4.07;;
78670;SDS011;68277;52.724;6.516;2024-01-30T11:02:45;4.90;;;3.05;;
78670;SDS011;68277;52.724;6.516;2024-01-30T11:05:12;8.25;;;3.58;;
78670;SDS011;68277;52.724;6.516;2024-01-30T11:07:38;7.13;;;4.10;;
78670;SDS011;68277;52.724;6.516;2024-01-30T11:10:06;9.65;;;5.00;;
78670;SDS011;68277;52.724;6.516;2024-01-30T11:12:37;6.32;;;3.25;;
78670;SDS011;68277;52.724;6.516;2024-01-30T11:15:07;8.00;;;4.25;;
78670;SDS011;68277;52.724;6.516;2024-01-30T11:22:58;7.13;;;4.22;;
78670;SDS011;68277;52.724;6.516;2024-01-30T11:25:25;7.07;;;4.38;;
78670;SDS011;68277;52.724;6.516;2024-01-30T11:27:57;19.23;;;4.95;;
78670;SDS011;68277;52.724;6.516;2024-01-30T11:30:24;11.18;;;4.35;;
78670;SDS011;68277;52.724;6.516;2024-01-30T11:35:34;21.45;;;6.90;;
78670;SDS011;68277;52.724;6.516;2024-01-30T11:38:01;10.73;;;5.40;;
78670;SDS011;68277;52.724;6.516;2024-01-30T11:43:04;9.10;;;4.75;;
78670;SDS011;68277;52.724;6.516;2024-01-30T11:45:32;12.63;;;5.55;;
78670;SDS011;68277;52.724;6.516;2024-01-30T11:47:59;14.85;;;5.10;;
78670;SDS011;68277;52.724;6.516;2024-01-30T11:50:34;9.43;;;5.35;;
78670;SDS011;68277;52.724;6.516;2024-01-30T11:53:00;9.43;;;5.15;;
78670;SDS011;68277;52.724;6.516;2024-01-30T11:55:26;10.43;;;4.82;;
78670;SDS011;68277;52.724;6.516;2024-01-30T11:57:57;12.90;;;4.90;;
78670;SDS011;68277;52.724;6.516;2024-01-30T12:00:26;11.45;;;5.05;;
78670;SDS011;68277;52.724;6.516;2024-01-30T12:02:52;12.35;;;5.78;;
78670;SDS011;68277;52.724;6.516;2024-01-30T12:05:23;10.63;;;4.70;;
78670;SDS011;68277;52.724;6.516;2024-01-30T12:07:49;10.35;;;4.15;;
78670;SDS011;68277;52.724;6.516;2024-01-30T12:10:14;8.43;;;5.15;;
78670;SDS011;68277;52.724;6.516;2024-01-30T12:12:47;9.73;;;5.25;;
78670;SDS011;68277;52.724;6.516;2024-01-30T12:15:14;6.88;;;3.92;;
78670;SDS011;68277;52.724;6.516;2024-01-30T12:17:40;9.55;;;4.45;;
78670;SDS011;68277;52.724;6.516;2024-01-30T12:20:09;17.35;;;6.32;;
78670;SDS011;68277;52.724;6.516;2024-01-30T12:22:48;7.93;;;4.20;;
78670;SDS011;68277;52.724;6.516;2024-01-30T12:25:18;8.23;;;3.90;;
78670;SDS011;68277;52.724;6.516;2024-01-30T12:27:46;9.32;;;5.13;;
78670;SDS011;68277;52.724;6.516;2024-01-30T12:30:15;11.25;;;4.75;;
78670;SDS011;68277;52.724;6.516;2024-01-30T12:32:42;10.80;;;5.25;;
78670;SDS011;68277;52.724;6.516;2024-01-30T12:35:12;7.63;;;4.05;;
78670;SDS011;68277;52.724;6.516;2024-01-30T12:37:40;8.98;;;3.88;;
78670;SDS011;68277;52.724;6.516;2024-01-30T12:40:09;17.13;;;4.40;;
78670;SDS011;68277;52.724;6.516;2024-01-30T12:42:38;8.25;;;4.68;;
78670;SDS011;68277;52.724;6.516;2024-01-30T12:45:04;6.97;;;3.45;;
78670;SDS011;68277;52.724;6.516;2024-01-30T12:47:30;6.18;;;3.63;;
78670;SDS011;68277;52.724;6.516;2024-01-30T12:49:56;5.57;;;2.97;;
78670;SDS011;68277;52.724;6.516;2024-01-30T12:52:22;4.50;;;3.05;;
78670;SDS011;68277;52.724;6.516;2024-01-30T12:54:48;8.90;;;3.00;;
78670;SDS011;68277;52.724;6.516;2024-01-30T12:57:18;3.78;;;3.08;;
78670;SDS011;68277;52.724;6.516;2024-01-30T12:59:44;7.22;;;2.55;;
78670;SDS011;68277;52.724;6.516;2024-01-30T13:02:12;3.80;;;2.42;;
78670;SDS011;68277;52.724;6.516;2024-01-30T13:04:38;7.10;;;2.85;;
78670;SDS011;68277;52.724;6.516;2024-01-30T13:07:05;3.28;;;2.40;;
78670;SDS011;68277;52.724;6.516;2024-01-30T13:09:30;3.67;;;1.88;;
78670;SDS011;68277;52.724;6.516;2024-01-30T13:11:57;3.45;;;1.88;;
78670;SDS011;68277;52.724;6.516;2024-01-30T13:14:23;3.55;;;2.22;;
78670;SDS011;68277;52.724;6.516;2024-01-30T13:16:49;11.77;;;2.42;;
78670;SDS011;68277;52.724;6.516;2024-01-30T13:19:16;3.17;;;2.67;;
78670;SDS011;68277;52.724;6.516;2024-01-30T13:21:42;5.95;;;2.03;;
78670;SDS011;68277;52.724;6.516;2024-01-30T13:24:08;5.30;;;2.40;;
78670;SDS011;68277;52.724;6.516;2024-01-30T13:26:34;7.38;;;2.15;;
78670;SDS011;68277;52.724;6.516;2024-01-30T13:29:00;5.93;;;2.40;;
78670;SDS011;68277;52.724;6.516;2024-01-30T13:31:29;3.20;;;1.80;;
78670;SDS011;68277;52.724;6.516;2024-01-30T13:33:55;3.25;;;1.90;;
78670;SDS011;68277;52.724;6.516;2024-01-30T13:36:21;3.55;;;2.22;;
78670;SDS011;68277;52.724;6.516;2024-01-30T13:38:47;3.60;;;2.10;;
78670;SDS011;68277;52.724;6.516;2024-01-30T13:41:13;3.80;;;2.25;;
78670;SDS011;68277;52.724;6.516;2024-01-30T13:43:38;2.70;;;1.60;;
78670;SDS011;68277;52.724;6.516;2024-01-30T13:46:04;4.65;;;2.50;;
78670;SDS011;68277;52.724;6.516;2024-01-30T13:48:31;3.38;;;2.35;;
78670;SDS011;68277;52.724;6.516;2024-01-30T13:50:56;2.17;;;1.42;;
78670;SDS011;68277;52.724;6.516;2024-01-30T13:53:22;3.60;;;2.67;;
78670;SDS011;68277;52.724;6.516;2024-01-30T13:55:48;10.50;;;2.25;;
78670;SDS011;68277;52.724;6.516;2024-01-30T13:58:13;2.22;;;1.33;;
78670;SDS011;68277;52.724;6.516;2024-01-30T14:00:39;9.85;;;1.63;;
78670;SDS011;68277;52.724;6.516;2024-01-30T14:03:05;2.75;;;1.38;;
78670;SDS011;68277;52.724;6.516;2024-01-30T14:05:31;1.42;;;1.00;;
78670;SDS011;68277;52.724;6.516;2024-01-30T14:07:57;1.30;;;1.20;;
78670;SDS011;68277;52.724;6.516;2024-01-30T14:10:23;5.07;;;1.20;;
78670;SDS011;68277;52.724;6.516;2024-01-30T14:12:49;1.90;;;0.90;;
78670;SDS011;68277;52.724;6.516;2024-01-30T14:15:14;1.23;;;0.85;;
78670;SDS011;68277;52.724;6.516;2024-01-30T14:17:43;0.75;;;0.60;;
78670;SDS011;68277;52.724;6.516;2024-01-30T14:20:10;1.00;;;0.80;;
78670;SDS011;68277;52.724;6.516;2024-01-30T14:22:36;2.65;;;0.93;;
78670;SDS011;68277;52.724;6.516;2024-01-30T14:25:02;1.50;;;1.10;;
78670;SDS011;68277;52.724;6.516;2024-01-30T14:27:32;1.40;;;0.80;;
78670;SDS011;68277;52.724;6.516;2024-01-30T14:29:58;2.03;;;1.10;;
78670;SDS011;68277;52.724;6.516;2024-01-30T14:32:24;1.13;;;0.70;;
78670;SDS011;68277;52.724;6.516;2024-01-30T14:34:50;2.45;;;0.95;;
78670;SDS011;68277;52.724;6.516;2024-01-30T14:37:17;3.08;;;1.05;;
78670;SDS011;68277;52.724;6.516;2024-01-30T14:39:44;1.95;;;1.05;;
78670;SDS011;68277;52.724;6.516;2024-01-30T14:42:09;1.73;;;0.93;;
78670;SDS011;68277;52.724;6.516;2024-01-30T14:44:35;1.13;;;0.70;;
78670;SDS011;68277;52.724;6.516;2024-01-30T14:47:01;4.40;;;1.13;;
78670;SDS011;68277;52.724;6.516;2024-01-30T14:49:27;1.30;;;0.98;;
78670;SDS011;68277;52.724;6.516;2024-01-30T14:51:53;2.17;;;1.30;;
78670;SDS011;68277;52.724;6.516;2024-01-30T14:54:19;1.40;;;0.95;;
78670;SDS011;68277;52.724;6.516;2024-01-30T14:56:47;1.77;;;0.98;;
78670;SDS011;68277;52.724;6.516;2024-01-30T14:59:12;4.55;;;1.35;;
78670;SDS011;68277;52.724;6.516;2024-01-30T15:01:38;3.13;;;1.05;;
78670;SDS011;68277;52.724;6.516;2024-01-30T15:04:04;1.17;;;0.93;;
78670;SDS011;68277;52.724;6.516;2024-01-30T15:06:30;1.08;;;0.95;;
78670;SDS011;68277;52.724;6.516;2024-01-30T15:08:55;2.00;;;1.45;;
78670;SDS011;68277;52.724;6.516;2024-01-30T15:11:21;1.60;;;1.20;;
78670;SDS011;68277;52.724;6.516;2024-01-30T15:13:47;3.25;;;1.35;;
78670;SDS011;68277;52.724;6.516;2024-01-30T15:16:12;4.55;;;1.27;;